Time;durP1;ratioP1;P1;durP2;ratioP2;P2;SDS_P1;SDS_P2;PMS_P1;PMS_P2;Temp;Humidity;BMP_temperature;BMP_pressure;BME280_temperature;BME280_humidity;BME280_pressure;Samples;Min_cycle;Max_cycle;Signal;HPM_P1;HPM_P2
2023/10/19 00:02:43;;;;;;;6.13;3.20;;;;;;;;;;5102334;28;20106;-71
2023/10/19 00:05:30;;;;;;;3.78;2.80;;;;;;;;;;5117404;28;20039;-73
2023/10/19 00:11:03;;;;;;;7.68;3.20;;;;;;;;;;5115098;28;20016;-73
2023/10/19 00:13:54;;;;;;;4.55;3.03;;;;;;;;;;5117822;28;20026;-74
2023/10/19 00:16:39;;;;;;;4.47;3.17;;;;;;;;;;5116614;28;20022;-73
2023/10/19 00:19:28;;;;;;;5.60;3.20;;;;;;;;;;5116014;28;20031;-73
2023/10/19 00:22:20;;;;;;;5.50;3.35;;;;;;;;;;5117359;28;20435;-73
2023/10/19 00:25:13;;;;;;;4.63;3.17;;;;;;;;;;5101328;28;20043;-73
2023/10/19 00:28:00;;;;;;;8.50;4.03;;;;;;;;;;5116636;28;20031;-74
2023/10/19 00:30:48;;;;;;;6.03;3.55;;;;;;;;;;5116126;28;20455;-73
2023/10/19 00:33:38;;;;;;;6.72;3.40;;;;;;;;;;5115728;28;20042;-73
2023/10/19 00:36:25;;;;;;;4.75;3.30;;;;;;;;;;5116044;28;20023;-72
2023/10/19 00:39:40;;;;;;;5.20;2.85;;;;;;;;;;5101321;28;20020;-73
2023/10/19 00:42:24;;;;;;;4.45;2.80;;;;;;;;;;5115200;28;20019;-72
2023/10/19 00:45:12;;;;;;;4.22;2.83;;;;;;;;;;5101049;28;20047;-72
2023/10/19 00:47:58;;;;;;;5.22;3.05;;;;;;;;;;5116193;28;20011;-72
2023/10/19 00:50:47;;;;;;;5.32;3.20;;;;;;;;;;5114886;28;20027;-73
2023/10/19 00:53:34;;;;;;;5.55;3.28;;;;;;;;;;5116243;28;20037;-73
2023/10/19 00:56:23;;;;;;;6.25;2.80;;;;;;;;;;5100282;28;20019;-71
2023/10/19 00:59:14;;;;;;;4.35;2.90;;;;;;;;;;5116339;28;20051;-72
2023/10/19 01:05:07;;;;;;;4.38;3.05;;;;;;;;;;5116398;28;20448;-73
2023/10/19 01:07:57;;;;;;;6.25;3.35;;;;;;;;;;5115220;28;20026;-73
2023/10/19 01:10:45;;;;;;;4.60;3.58;;;;;;;;;;5114799;28;20401;-73
2023/10/19 01:13:34;;;;;;;4.78;3.28;;;;;;;;;;5099904;28;20023;-73
2023/10/19 01:16:23;;;;;;;5.90;3.38;;;;;;;;;;5115308;28;20118;-73
2023/10/19 01:19:11;;;;;;;8.88;3.72;;;;;;;;;;5100633;28;20023;-73
2023/10/19 01:21:59;;;;;;;6.93;3.80;;;;;;;;;;5114530;28;20015;-73
2023/10/19 01:24:46;;;;;;;7.55;4.32;;;;;;;;;;5114985;28;20141;-73
2023/10/19 01:27:31;;;;;;;6.10;4.03;;;;;;;;;;5101666;28;20439;-73
2023/10/19 01:30:18;;;;;;;6.63;3.55;;;;;;;;;;5114113;28;20035;-74
2023/10/19 01:33:08;;;;;;;6.50;4.13;;;;;;;;;;5114816;28;20027;-74
2023/10/19 01:36:12;;;;;;;7.10;4.10;;;;;;;;;;5114732;28;20098;-73
2023/10/19 01:39:00;;;;;;;5.85;3.83;;;;;;;;;;5114314;28;20101;-73
2023/10/19 01:41:46;;;;;;;9.95;4.15;;;;;;;;;;5099669;28;20074;-73
2023/10/19 01:44:35;;;;;;;8.13;4.03;;;;;;;;;;5113743;28;20039;-73
2023/10/19 01:47:22;;;;;;;10.68;4.28;;;;;;;;;;5113313;28;20023;-72
2023/10/19 01:50:19;;;;;;;8.57;4.80;;;;;;;;;;5114465;28;20110;-73
2023/10/19 01:53:15;;;;;;;8.10;4.75;;;;;;;;;;5093596;28;20048;-72
2023/10/19 01:56:00;;;;;;;8.10;4.78;;;;;;;;;;5094362;28;20466;-72
2023/10/19 01:58:46;;;;;;;12.38;5.10;;;;;;;;;;5093992;28;20032;-72
2023/10/19 02:01:32;;;;;;;9.10;5.22;;;;;;;;;;5093678;28;20396;-72
2023/10/19 02:04:21;;;;;;;10.18;5.88;;;;;;;;;;5079009;28;20024;-72
2023/10/19 02:07:12;;;;;;;13.93;5.60;;;;;;;;;;5093922;28;20360;-72
2023/10/19 02:09:58;;;;;;;11.13;6.25;;;;;;;;;;5093870;28;20436;-72
2023/10/19 02:12:46;;;;;;;8.80;5.88;;;;;;;;;;5080157;28;20059;-72
2023/10/19 02:15:35;;;;;;;12.30;5.93;;;;;;;;;;5079426;28;20047;-72
2023/10/19 02:18:21;;;;;;;15.02;5.85;;;;;;;;;;5079000;28;20035;-72
2023/10/19 02:21:07;;;;;;;11.52;6.38;;;;;;;;;;5079589;28;20035;-73
2023/10/19 02:23:52;;;;;;;15.43;6.20;;;;;;;;;;5079801;28;20016;-74
2023/10/19 02:26:38;;;;;;;12.40;5.95;;;;;;;;;;5094413;28;20098;-73
2023/10/19 02:29:25;;;;;;;10.40;5.93;;;;;;;;;;5093875;28;20028;-73
2023/10/19 02:32:11;;;;;;;10.20;6.05;;;;;;;;;;5083437;28;20020;-71
2023/10/19 02:34:57;;;;;;;9.80;5.63;;;;;;;;;;5088138;28;20104;-73
2023/10/19 02:37:43;;;;;;;11.35;6.35;;;;;;;;;;5098004;28;20012;-74
2023/10/19 02:40:31;;;;;;;12.88;6.50;;;;;;;;;;5077885;28;20030;-74
2023/10/19 02:43:17;;;;;;;13.15;6.40;;;;;;;;;;5094330;28;20032;-76
2023/10/19 02:46:03;;;;;;;12.95;7.40;;;;;;;;;;5093584;28;20103;-74
2023/10/19 02:48:49;;;;;;;16.60;7.45;;;;;;;;;;5078825;28;20403;-74
2023/10/19 02:51:36;;;;;;;15.70;8.15;;;;;;;;;;5103133;28;20047;-74
2023/10/19 02:54:24;;;;;;;12.98;8.05;;;;;;;;;;5114815;28;20357;-75
2023/10/19 02:57:12;;;;;;;17.48;8.57;;;;;;;;;;5113460;28;20144;-74
2023/10/19 02:59:59;;;;;;;15.20;8.60;;;;;;;;;;5114208;28;20074;-75
2023/10/19 03:02:44;;;;;;;14.95;8.90;;;;;;;;;;5098976;28;20367;-72
2023/10/19 03:05:30;;;;;;;19.38;9.50;;;;;;;;;;5113506;28;20348;-73
2023/10/19 03:08:16;;;;;;;19.50;9.80;;;;;;;;;;5113361;28;20087;-75
2023/10/19 03:11:04;;;;;;;21.05;9.70;;;;;;;;;;5112603;28;20031;-75
2023/10/19 03:13:50;;;;;;;21.42;10.68;;;;;;;;;;5117522;28;20454;-75
2023/10/19 03:16:36;;;;;;;19.08;9.82;;;;;;;;;;5117225;28;20031;-76
2023/10/19 03:19:21;;;;;;;15.13;9.20;;;;;;;;;;5117703;28;20020;-76
2023/10/19 03:22:09;;;;;;;16.55;8.70;;;;;;;;;;5116297;28;20105;-74
2023/10/19 03:25:47;;;;;;;19.15;8.38;;;;;;;;;;5116729;28;20031;-75
2023/10/19 03:28:08;;;;;;;16.50;9.07;;;;;;;;;;5115671;28;20027;-76
2023/10/19 03:30:55;;;;;;;17.58;8.23;;;;;;;;;;5102181;28;20031;-76
2023/10/19 03:33:40;;;;;;;25.83;9.38;;;;;;;;;;5102501;28;20355;-75
2023/10/19 03:36:26;;;;;;;14.52;8.43;;;;;;;;;;5116867;28;20054;-75
2023/10/19 03:39:12;;;;;;;17.95;9.25;;;;;;;;;;5116639;28;20065;-74
2023/10/19 03:41:58;;;;;;;13.27;8.23;;;;;;;;;;5101884;28;20030;-75
2023/10/19 03:47:36;;;;;;;18.67;9.88;;;;;;;;;;5117453;28;20023;-71
2023/10/19 03:50:21;;;;;;;15.30;8.70;;;;;;;;;;5116793;28;20051;-71
2023/10/19 03:53:07;;;;;;;14.60;8.45;;;;;;;;;;5116533;28;20019;-70
2023/10/19 03:55:54;;;;;;;16.10;7.57;;;;;;;;;;5116716;28;20098;-72
2023/10/19 03:58:42;;;;;;;14.18;7.13;;;;;;;;;;5116326;28;20016;-71
2023/10/19 04:01:31;;;;;;;12.52;6.65;;;;;;;;;;5116184;28;20024;-71
2023/10/19 04:04:17;;;;;;;8.63;5.40;;;;;;;;;;5117681;28;20019;-71
2023/10/19 04:07:10;;;;;;;12.38;6.60;;;;;;;;;;5116683;28;20036;-70
2023/10/19 04:13:02;;;;;;;10.02;6.10;;;;;;;;;;5086559;28;20493;-71
2023/10/19 04:15:49;;;;;;;11.63;7.07;;;;;;;;;;5101161;28;20087;-71
2023/10/19 04:18:39;;;;;;;16.20;7.80;;;;;;;;;;5117221;28;20035;-71
2023/10/19 04:21:25;;;;;;;14.45;7.90;;;;;;;;;;5115852;28;20041;-70
2023/10/19 04:24:11;;;;;;;16.25;8.30;;;;;;;;;;5113945;28;20023;-70
2023/10/19 04:26:59;;;;;;;17.33;8.70;;;;;;;;;;5115611;28;20020;-71
2023/10/19 04:29:45;;;;;;;16.80;9.30;;;;;;;;;;5115626;28;20024;-70
2023/10/19 04:32:31;;;;;;;18.23;9.30;;;;;;;;;;5114397;28;20059;-71
2023/10/19 04:35:23;;;;;;;20.33;9.15;;;;;;;;;;5115609;28;20024;-71
2023/10/19 04:38:09;;;;;;;16.98;8.95;;;;;;;;;;5116893;28;20020;-70
2023/10/19 04:40:54;;;;;;;15.13;9.50;;;;;;;;;;5116890;28;20024;-69
2023/10/19 04:43:43;;;;;;;19.75;10.02;;;;;;;;;;5100220;28;20016;-71
2023/10/19 04:46:29;;;;;;;19.20;9.27;;;;;;;;;;5101070;28;20383;-70
2023/10/19 04:49:16;;;;;;;21.90;9.70;;;;;;;;;;5115424;28;20368;-70
2023/10/19 04:52:03;;;;;;;21.00;10.52;;;;;;;;;;5114966;28;20202;-70
2023/10/19 04:54:48;;;;;;;25.17;11.65;;;;;;;;;;5116228;28;20035;-71
2023/10/19 04:57:34;;;;;;;24.23;11.60;;;;;;;;;;5116043;28;20102;-70
2023/10/19 05:00:20;;;;;;;22.35;12.38;;;;;;;;;;5115236;28;20143;-71
2023/10/19 05:03:07;;;;;;;25.02;11.80;;;;;;;;;;5115225;28;20027;-71
2023/10/19 05:05:52;;;;;;;27.90;11.68;;;;;;;;;;5115353;28;20077;-71
2023/10/19 05:08:38;;;;;;;20.30;10.43;;;;;;;;;;5116135;28;20099;-71
2023/10/19 05:11:23;;;;;;;20.45;10.02;;;;;;;;;;5115473;28;20102;-69
2023/10/19 05:14:09;;;;;;;16.25;9.27;;;;;;;;;;5100690;28;20030;-70
2023/10/19 05:16:54;;;;;;;20.15;9.75;;;;;;;;;;5100117;28;20479;-70
2023/10/19 05:19:40;;;;;;;22.42;10.27;;;;;;;;;;5116498;27;20015;-71
2023/10/19 05:22:29;;;;;;;15.98;10.10;;;;;;;;;;5116165;28;20051;-71
2023/10/19 05:25:15;;;;;;;24.60;11.90;;;;;;;;;;5101112;28;20027;-72
2023/10/19 05:28:00;;;;;;;24.55;11.93;;;;;;;;;;5100784;28;20071;-71
2023/10/19 05:30:46;;;;;;;21.20;12.13;;;;;;;;;;5114133;28;20115;-71
2023/10/19 05:33:32;;;;;;;20.73;10.60;;;;;;;;;;5114423;28;20035;-71
2023/10/19 05:36:18;;;;;;;18.90;10.73;;;;;;;;;;5115440;28;20019;-71
2023/10/19 05:39:07;;;;;;;17.35;10.68;;;;;;;;;;5115226;28;20020;-71
2023/10/19 05:41:58;;;;;;;17.90;9.23;;;;;;;;;;5115664;28;20044;-71
2023/10/19 05:44:44;;;;;;;16.70;9.15;;;;;;;;;;5114542;28;20089;-72
2023/10/19 05:47:29;;;;;;;14.98;8.75;;;;;;;;;;5114346;28;20051;-71
2023/10/19 05:50:15;;;;;;;18.05;8.43;;;;;;;;;;5114760;28;20049;-70
2023/10/19 05:53:04;;;;;;;13.30;8.65;;;;;;;;;;5113519;28;20050;-72
2023/10/19 05:55:51;;;;;;;12.02;8.02;;;;;;;;;;5115817;28;20327;-72
2023/10/19 05:58:37;;;;;;;18.10;8.50;;;;;;;;;;5114761;28;20432;-72
2023/10/19 06:01:23;;;;;;;16.90;8.43;;;;;;;;;;5114078;28;20023;-72
2023/10/19 06:04:10;;;;;;;17.40;7.80;;;;;;;;;;5114697;28;20032;-71
2023/10/19 06:06:56;;;;;;;13.13;7.40;;;;;;;;;;5099044;28;20107;-71
2023/10/19 06:09:42;;;;;;;16.27;6.90;;;;;;;;;;5114656;28;20051;-72
2023/10/19 06:12:28;;;;;;;11.35;7.45;;;;;;;;;;5115251;28;20393;-72
2023/10/19 06:15:15;;;;;;;8.85;5.30;;;;;;;;;;5114260;28;20030;-71
2023/10/19 06:18:00;;;;;;;12.90;5.90;;;;;;;;;;5099538;28;20081;-71
2023/10/19 06:20:47;;;;;;;7.63;5.45;;;;;;;;;;5098963;28;20396;-71
2023/10/19 06:23:32;;;;;;;10.65;5.22;;;;;;;;;;5113962;28;20440;-71
2023/10/19 06:26:18;;;;;;;8.35;5.05;;;;;;;;;;5115954;28;20189;-72
2023/10/19 06:29:04;;;;;;;9.20;6.40;;;;;;;;;;5114188;28;20024;-72
2023/10/19 06:31:50;;;;;;;16.10;7.63;;;;;;;;;;5114172;28;20110;-72
2023/10/19 06:34:36;;;;;;;15.30;7.00;;;;;;;;;;5113953;28;20077;-73
2023/10/19 06:37:21;;;;;;;13.73;7.65;;;;;;;;;;5112686;28;20121;-72
2023/10/19 06:40:07;;;;;;;12.85;6.97;;;;;;;;;;5114320;28;20026;-72
2023/10/19 06:42:57;;;;;;;13.13;7.00;;;;;;;;;;5115298;28;20160;-72
2023/10/19 06:45:44;;;;;;;11.32;6.57;;;;;;;;;;5116170;28;20051;-71
2023/10/19 06:48:30;;;;;;;12.43;7.10;;;;;;;;;;5118891;28;20032;-71
2023/10/19 06:51:16;;;;;;;15.02;8.30;;;;;;;;;;5117564;28;20133;-72
2023/10/19 06:54:02;;;;;;;14.13;8.40;;;;;;;;;;5118155;28;20028;-72
2023/10/19 06:56:48;;;;;;;13.25;7.90;;;;;;;;;;5117653;28;20085;-72
2023/10/19 06:59:35;;;;;;;13.15;7.70;;;;;;;;;;5103980;28;20015;-71
2023/10/19 07:02:21;;;;;;;16.83;8.43;;;;;;;;;;5120528;28;20483;-71
2023/10/19 07:05:10;;;;;;;16.50;8.38;;;;;;;;;;5116581;28;20078;-70
2023/10/19 07:07:56;;;;;;;14.38;8.60;;;;;;;;;;5117451;28;20324;-71
2023/10/19 07:10:42;;;;;;;18.15;9.43;;;;;;;;;;5117857;28;20057;-71
2023/10/19 07:13:30;;;;;;;16.20;8.90;;;;;;;;;;5118579;28;20038;-72
2023/10/19 07:16:18;;;;;;;14.70;8.38;;;;;;;;;;5117563;28;20033;-72
2023/10/19 07:19:04;;;;;;;19.33;9.05;;;;;;;;;;5119136;28;20106;-73
2023/10/19 07:21:57;;;;;;;23.27;8.82;;;;;;;;;;5117775;28;20019;-71
2023/10/19 07:24:43;;;;;;;16.08;7.30;;;;;;;;;;5117278;28;20070;-72
2023/10/19 07:27:28;;;;;;;20.67;7.78;;;;;;;;;;5118451;28;20331;-72
2023/10/19 07:30:15;;;;;;;9.60;6.57;;;;;;;;;;5117030;28;20020;-71
2023/10/19 07:33:04;;;;;;;15.07;6.45;;;;;;;;;;5117345;28;20089;-72
2023/10/19 07:35:59;;;;;;;18.40;7.53;;;;;;;;;;5116726;28;20015;-70
2023/10/19 07:38:47;;;;;;;10.60;6.45;;;;;;;;;;5117963;28;20023;-71
2023/10/19 07:41:36;;;;;;;8.02;6.13;;;;;;;;;;5116899;28;20103;-70
2023/10/19 07:44:21;;;;;;;9.95;6.60;;;;;;;;;;5102026;28;20035;-70
2023/10/19 07:47:09;;;;;;;9.55;5.95;;;;;;;;;;5116833;28;20432;-69
2023/10/19 07:49:56;;;;;;;12.30;7.13;;;;;;;;;;5102126;28;20024;-70
2023/10/19 07:52:48;;;;;;;8.73;6.60;;;;;;;;;;5101373;28;20047;-71
2023/10/19 07:55:34;;;;;;;18.70;8.90;;;;;;;;;;5101526;28;20027;-71
2023/10/19 07:58:20;;;;;;;11.35;7.50;;;;;;;;;;5101449;28;20020;-70
2023/10/19 08:01:06;;;;;;;12.02;7.85;;;;;;;;;;5116282;28;20160;-71
2023/10/19 08:03:51;;;;;;;11.98;6.55;;;;;;;;;;5116377;28;20020;-70
2023/10/19 08:06:37;;;;;;;8.50;6.20;;;;;;;;;;5117083;28;20024;-69
2023/10/19 08:09:23;;;;;;;8.77;5.80;;;;;;;;;;5101674;28;20073;-71
2023/10/19 08:12:09;;;;;;;8.38;6.30;;;;;;;;;;5118077;28;20333;-71
2023/10/19 08:14:56;;;;;;;9.85;5.93;;;;;;;;;;5117529;28;20030;-72
2023/10/19 08:17:43;;;;;;;9.18;5.50;;;;;;;;;;5116295;28;20038;-71
2023/10/19 08:20:31;;;;;;;12.80;6.18;;;;;;;;;;5116231;28;20085;-70
2023/10/19 08:23:23;;;;;;;8.20;5.97;;;;;;;;;;5116107;28;20020;-70
2023/10/19 08:26:08;;;;;;;8.70;5.70;;;;;;;;;;5094046;28;20028;-69
2023/10/19 08:28:54;;;;;;;8.80;6.13;;;;;;;;;;5115331;28;20020;-69
2023/10/19 08:31:40;;;;;;;7.93;6.22;;;;;;;;;;5115549;28;20091;-71
2023/10/19 08:34:26;;;;;;;8.02;5.88;;;;;;;;;;5115773;28;20108;-70
2023/10/19 08:37:13;;;;;;;13.13;6.20;;;;;;;;;;5099513;28;20031;-70
2023/10/19 08:39:59;;;;;;;8.55;6.32;;;;;;;;;;5115148;28;20455;-70
2023/10/19 08:42:45;;;;;;;9.70;6.03;;;;;;;;;;5116471;28;20027;-71
2023/10/19 08:45:34;;;;;;;7.40;5.90;;;;;;;;;;5101299;28;20037;-71
2023/10/19 08:48:20;;;;;;;13.38;6.90;;;;;;;;;;5115991;28;20027;-70
2023/10/19 08:51:09;;;;;;;8.73;6.82;;;;;;;;;;5115729;28;20043;-73
2023/10/19 08:53:55;;;;;;;7.80;6.03;;;;;;;;;;5114921;28;20396;-72
2023/10/19 08:56:41;;;;;;;10.25;6.03;;;;;;;;;;5115393;28;20066;-69
2023/10/19 08:59:28;;;;;;;7.97;6.25;;;;;;;;;;5114931;28;20440;-71
2023/10/19 09:02:16;;;;;;;8.40;6.03;;;;;;;;;;5100801;28;20051;-69
2023/10/19 09:05:07;;;;;;;15.32;5.93;;;;;;;;;;5115911;28;20059;-69
2023/10/19 09:07:55;;;;;;;11.30;5.78;;;;;;;;;;5113889;28;20023;-74
2023/10/19 09:10:45;;;;;;;10.10;6.60;;;;;;;;;;5114894;28;20118;-75
2023/10/19 09:13:42;;;;;;;8.20;6.03;;;;;;;;;;5100826;28;20019;-73
2023/10/19 09:16:27;;;;;;;8.38;6.00;;;;;;;;;;5116004;28;20161;-76
2023/10/19 09:19:13;;;;;;;10.70;6.30;;;;;;;;;;5100456;28;20111;-77
2023/10/19 09:21:59;;;;;;;8.10;6.10;;;;;;;;;;5079794;28;20035;-73
2023/10/19 09:24:45;;;;;;;7.28;5.60;;;;;;;;;;5095425;28;20316;-75
2023/10/19 09:27:33;;;;;;;9.65;7.75;;;;;;;;;;5093281;28;20035;-74
2023/10/19 09:30:19;;;;;;;13.73;7.72;;;;;;;;;;5095646;28;20397;-75
2023/10/19 09:33:07;;;;;;;8.05;5.68;;;;;;;;;;5093698;28;20016;-73
2023/10/19 09:36:00;;;;;;;11.27;6.82;;;;;;;;;;5094769;28;20020;-71
2023/10/19 09:38:51;;;;;;;8.35;5.90;;;;;;;;;;5080526;28;20020;-73
2023/10/19 09:41:37;;;;;;;6.82;6.10;;;;;;;;;;5095340;28;20076;-73
2023/10/19 09:44:25;;;;;;;17.30;6.47;;;;;;;;;;5093512;28;20020;-72
2023/10/19 09:47:25;;;;;;;8.27;6.13;;;;;;;;;;5094891;28;20020;-73
2023/10/19 09:50:11;;;;;;;6.25;5.55;;;;;;;;;;5094280;28;20016;-72
2023/10/19 09:52:58;;;;;;;7.72;5.53;;;;;;;;;;5073313;28;20098;-74
2023/10/19 09:55:45;;;;;;;8.73;5.20;;;;;;;;;;5074630;28;20020;-73
2023/10/19 09:58:40;;;;;;;7.80;4.70;;;;;;;;;;5075123;28;20063;-73
2023/10/19 10:01:27;;;;;;;6.35;4.57;;;;;;;;;;5059329;28;20056;-72
2023/10/19 10:04:30;;;;;;;8.00;4.50;;;;;;;;;;5074798;28;20031;-74
2023/10/19 10:07:17;;;;;;;6.20;4.40;;;;;;;;;;5075609;28;20364;-74
2023/10/19 10:10:04;;;;;;;5.10;4.22;;;;;;;;;;5075432;28;20036;-73
2023/10/19 10:12:50;;;;;;;7.25;4.30;;;;;;;;;;5074572;28;20024;-75
2023/10/19 10:15:40;;;;;;;6.15;4.22;;;;;;;;;;5075314;28;20055;-73
2023/10/19 10:18:35;;;;;;;7.43;4.47;;;;;;;;;;5074505;28;20020;-74
2023/10/19 10:21:21;;;;;;;6.85;3.80;;;;;;;;;;5094268;28;20031;-74
2023/10/19 10:24:11;;;;;;;4.47;3.60;;;;;;;;;;5084397;28;20024;-74
2023/10/19 10:26:58;;;;;;;4.80;3.97;;;;;;;;;;5097213;28;20028;-74
2023/10/19 10:29:58;;;;;;;4.97;4.20;;;;;;;;;;5099167;28;20104;-73
2023/10/19 10:32:53;;;;;;;5.43;4.30;;;;;;;;;;5098116;28;20032;-72
2023/10/19 10:35:41;;;;;;;5.50;3.67;;;;;;;;;;5097632;28;20115;-74
2023/10/19 10:38:33;;;;;;;4.63;3.67;;;;;;;;;;5097880;28;20423;-72
2023/10/19 10:41:28;;;;;;;4.28;3.53;;;;;;;;;;5098420;28;20038;-72
2023/10/19 10:44:14;;;;;;;5.97;3.15;;;;;;;;;;5097869;28;20047;-72
2023/10/19 10:46:59;;;;;;;6.38;3.60;;;;;;;;;;5082358;28;20020;-73
2023/10/19 10:49:49;;;;;;;4.65;3.30;;;;;;;;;;5083391;28;20341;-74
2023/10/19 10:52:36;;;;;;;3.92;3.10;;;;;;;;;;5119780;28;20051;-74
2023/10/19 10:55:23;;;;;;;4.05;2.90;;;;;;;;;;5116559;28;20026;-73
2023/10/19 10:58:08;;;;;;;4.85;3.22;;;;;;;;;;5139439;28;20027;-73
2023/10/19 11:00:54;;;;;;;4.28;2.80;;;;;;;;;;5113421;28;20381;-75
2023/10/19 11:03:40;;;;;;;3.72;2.70;;;;;;;;;;5104652;28;20019;-73
2023/10/19 11:06:26;;;;;;;3.35;2.60;;;;;;;;;;5121217;28;20019;-74
2023/10/19 11:09:12;;;;;;;5.88;3.80;;;;;;;;;;5116786;28;20016;-73
2023/10/19 11:11:57;;;;;;;7.10;2.90;;;;;;;;;;5120830;28;20024;-73
2023/10/19 11:14:57;;;;;;;6.20;2.78;;;;;;;;;;5120351;28;20047;-73
2023/10/19 11:17:45;;;;;;;3.13;2.47;;;;;;;;;;5122948;28;20030;-73
2023/10/19 11:20:31;;;;;;;3.40;2.60;;;;;;;;;;5120680;28;20008;-74
2023/10/19 11:23:16;;;;;;;5.65;3.33;;;;;;;;;;5111353;28;20089;-73
2023/10/19 11:26:08;;;;;;;7.75;3.13;;;;;;;;;;5120792;28;20055;-74
2023/10/19 11:28:57;;;;;;;3.90;3.47;;;;;;;;;;5122496;28;20019;-74
2023/10/19 11:31:56;;;;;;;12.93;3.50;;;;;;;;;;5123095;28;20027;-74
2023/10/19 11:34:44;;;;;;;12.38;3.40;;;;;;;;;;5124597;28;20103;-74
2023/10/19 11:37:29;;;;;;;6.32;3.30;;;;;;;;;;5124437;28;20012;-73
2023/10/19 11:40:15;;;;;;;5.22;2.80;;;;;;;;;;5128036;28;20015;-73
2023/10/19 11:43:01;;;;;;;4.32;3.05;;;;;;;;;;5123554;28;20020;-74
2023/10/19 11:45:46;;;;;;;4.53;3.10;;;;;;;;;;5114691;28;20043;-73
2023/10/19 11:48:33;;;;;;;4.50;3.20;;;;;;;;;;5115193;28;20117;-73
2023/10/19 11:51:19;;;;;;;8.55;3.08;;;;;;;;;;5108010;28;20051;-76
2023/10/19 11:54:08;;;;;;;4.85;3.63;;;;;;;;;;5129041;28;20023;-73
2023/10/19 11:56:54;;;;;;;4.35;3.40;;;;;;;;;;5106585;28;20023;-74
2023/10/19 11:59:42;;;;;;;3.90;2.97;;;;;;;;;;5118697;28;20074;-74
2023/10/19 12:02:27;;;;;;;4.43;3.30;;;;;;;;;;5104024;28;20020;-74
2023/10/19 12:05:13;;;;;;;7.80;3.63;;;;;;;;;;5118507;28;20076;-73
2023/10/19 12:07:59;;;;;;;7.20;3.65;;;;;;;;;;5122658;28;20019;-73
2023/10/19 12:10:44;;;;;;;5.43;3.22;;;;;;;;;;5109753;28;20016;-74
2023/10/19 12:13:31;;;;;;;4.85;3.10;;;;;;;;;;5126526;28;20015;-72
2023/10/19 12:16:16;;;;;;;4.38;3.05;;;;;;;;;;5115818;28;20023;-73
2023/10/19 12:19:03;;;;;;;4.68;2.90;;;;;;;;;;5125897;28;20020;-74
2023/10/19 12:21:50;;;;;;;5.32;3.05;;;;;;;;;;5079338;28;20024;-74
2023/10/19 12:24:35;;;;;;;3.35;2.90;;;;;;;;;;5076523;28;20020;-76
2023/10/19 12:27:24;;;;;;;3.58;3.08;;;;;;;;;;5062317;28;20441;-73
2023/10/19 12:30:19;;;;;;;6.90;3.50;;;;;;;;;;5081534;28;20520;-74
2023/10/19 12:33:11;;;;;;;4.95;3.55;;;;;;;;;;5062410;28;20103;-73
2023/10/19 12:35:57;;;;;;;8.02;3.20;;;;;;;;;;5077335;28;20020;-74
2023/10/19 12:38:43;;;;;;;6.63;3.55;;;;;;;;;;5079889;28;20020;-73
2023/10/19 12:41:28;;;;;;;5.68;3.50;;;;;;;;;;5077548;28;20099;-74
2023/10/19 12:44:15;;;;;;;6.13;3.60;;;;;;;;;;5075707;28;20013;-75
2023/10/19 12:47:00;;;;;;;6.68;3.33;;;;;;;;;;5076233;28;20036;-74
2023/10/19 12:49:46;;;;;;;5.60;3.70;;;;;;;;;;5075912;28;20031;-74
2023/10/19 12:52:35;;;;;;;6.00;3.42;;;;;;;;;;5094594;28;20052;-74
2023/10/19 12:55:21;;;;;;;7.13;3.83;;;;;;;;;;5096114;28;20024;-72
2023/10/19 12:58:07;;;;;;;4.57;3.45;;;;;;;;;;5095130;28;20085;-74
2023/10/19 13:00:54;;;;;;;13.52;5.00;;;;;;;;;;5095814;28;20028;-75
2023/10/19 13:03:40;;;;;;;5.40;3.38;;;;;;;;;;5119554;27;20023;-74
2023/10/19 13:06:29;;;;;;;5.80;4.15;;;;;;;;;;5121246;27;20031;-74
2023/10/19 13:09:15;;;;;;;4.97;3.83;;;;;;;;;;5135139;27;20023;-73
2023/10/19 13:12:01;;;;;;;11.93;4.10;;;;;;;;;;5121059;27;20363;-75
2023/10/19 13:14:47;;;;;;;9.90;4.30;;;;;;;;;;5135722;27;20359;-74
2023/10/19 13:17:32;;;;;;;8.13;4.10;;;;;;;;;;5135497;27;20102;-73
2023/10/19 13:20:18;;;;;;;6.80;4.32;;;;;;;;;;5127014;27;20016;-73
2023/10/19 13:23:06;;;;;;;9.23;4.85;;;;;;;;;;5103088;28;20028;-74
2023/10/19 13:26:08;;;;;;;7.05;3.95;;;;;;;;;;5115607;28;20455;-75
2023/10/19 13:28:55;;;;;;;6.35;4.03;;;;;;;;;;5115916;28;20104;-75
2023/10/19 13:31:41;;;;;;;4.32;3.25;;;;;;;;;;5115204;28;20020;-76
2023/10/19 13:34:26;;;;;;;7.35;4.25;;;;;;;;;;5115837;28;20355;-76
2023/10/19 13:37:12;;;;;;;6.30;4.13;;;;;;;;;;5101507;28;20093;-75
2023/10/19 13:39:58;;;;;;;7.25;4.90;;;;;;;;;;5115063;28;20410;-76
2023/10/19 13:42:46;;;;;;;9.80;5.20;;;;;;;;;;5114939;28;20414;-77
2023/10/19 13:45:35;;;;;;;6.38;3.75;;;;;;;;;;5100371;28;20039;-77
2023/10/19 13:48:21;;;;;;;4.25;3.00;;;;;;;;;;5100994;28;20099;-77
2023/10/19 13:51:13;;;;;;;6.35;2.95;;;;;;;;;;5099422;28;20043;-75
2023/10/19 13:53:58;;;;;;;3.72;2.83;;;;;;;;;;5114611;28;20015;-70
2023/10/19 13:56:44;;;;;;;5.63;3.15;;;;;;;;;;5113919;28;20084;-70
2023/10/19 13:59:29;;;;;;;9.00;3.10;;;;;;;;;;5114304;28;20444;-69
2023/10/19 14:02:15;;;;;;;5.05;3.17;;;;;;;;;;5114837;28;20020;-70
2023/10/19 14:05:01;;;;;;;4.32;2.70;;;;;;;;;;5113667;28;20363;-70
2023/10/19 14:07:46;;;;;;;6.68;3.08;;;;;;;;;;5112096;28;20028;-69
2023/10/19 14:10:33;;;;;;;5.78;3.00;;;;;;;;;;5114946;28;20039;-68
2023/10/19 14:13:19;;;;;;;5.82;3.85;;;;;;;;;;5113352;28;20359;-68
2023/10/19 14:16:06;;;;;;;9.80;3.38;;;;;;;;;;5113354;28;20082;-66
2023/10/19 14:18:51;;;;;;;5.38;3.63;;;;;;;;;;5114951;28;20028;-68
2023/10/19 14:21:40;;;;;;;6.47;3.67;;;;;;;;;;5094291;28;20024;-68
2023/10/19 14:24:25;;;;;;;13.05;4.25;;;;;;;;;;5094549;28;20028;-70
2023/10/19 14:27:11;;;;;;;15.25;8.63;;;;;;;;;;5099454;28;20460;-69
2023/10/19 14:29:57;;;;;;;7.20;4.45;;;;;;;;;;5114563;28;20487;-70
2023/10/19 14:32:43;;;;;;;8.57;3.47;;;;;;;;;;5098765;28;20011;-71
2023/10/19 14:35:32;;;;;;;9.80;4.20;;;;;;;;;;5107815;28;20046;-73
2023/10/19 14:38:19;;;;;;;7.93;3.40;;;;;;;;;;5095222;28;20035;-72
2023/10/19 14:41:04;;;;;;;6.35;4.10;;;;;;;;;;5099289;28;20019;-73
2023/10/19 14:43:50;;;;;;;6.10;3.67;;;;;;;;;;5113513;28;20023;-73
2023/10/19 14:46:36;;;;;;;7.53;4.10;;;;;;;;;;5114346;28;20027;-73
2023/10/19 14:49:21;;;;;;;8.65;3.90;;;;;;;;;;5113046;28;20034;-74
2023/10/19 14:52:07;;;;;;;7.28;3.90;;;;;;;;;;5114141;28;20135;-72
2023/10/19 14:54:52;;;;;;;6.90;3.97;;;;;;;;;;5114171;28;20019;-73
2023/10/19 14:57:39;;;;;;;15.05;5.80;;;;;;;;;;5113681;28;20015;-73
2023/10/19 15:00:32;;;;;;;24.27;14.18;;;;;;;;;;5114333;28;20073;-71
2023/10/19 15:03:19;;;;;;;20.92;9.75;;;;;;;;;;5113537;28;20016;-71
2023/10/19 15:06:06;;;;;;;24.17;11.80;;;;;;;;;;5119913;28;20019;-73
2023/10/19 15:08:52;;;;;;;21.35;9.77;;;;;;;;;;5123907;27;20023;-73
2023/10/19 15:11:37;;;;;;;10.23;6.32;;;;;;;;;;5137580;27;20019;-71
2023/10/19 15:14:23;;;;;;;17.27;6.03;;;;;;;;;;5137823;27;20026;-73
2023/10/19 15:17:09;;;;;;;11.68;5.15;;;;;;;;;;5138131;27;20011;-73
2023/10/19 15:19:54;;;;;;;12.35;5.00;;;;;;;;;;5136727;27;20020;-73
2023/10/19 15:22:40;;;;;;;18.70;6.03;;;;;;;;;;5138086;27;20049;-73
2023/10/19 15:25:26;;;;;;;18.50;5.18;;;;;;;;;;5122916;27;20098;-71
2023/10/19 15:28:12;;;;;;;13.05;6.20;;;;;;;;;;5123957;27;20061;-72
2023/10/19 15:30:59;;;;;;;12.30;5.60;;;;;;;;;;5095989;28;20444;-73
2023/10/19 15:33:45;;;;;;;20.73;6.43;;;;;;;;;;5096807;28;20084;-72
2023/10/19 15:36:31;;;;;;;16.90;7.18;;;;;;;;;;5098434;28;20046;-73
2023/10/19 15:39:18;;;;;;;21.05;7.57;;;;;;;;;;5097940;28;20352;-73
2023/10/19 15:42:04;;;;;;;23.15;8.73;;;;;;;;;;5097705;28;20016;-73
2023/10/19 15:44:50;;;;;;;18.35;9.23;;;;;;;;;;5098541;27;20028;-74
2023/10/19 15:47:36;;;;;;;22.13;9.50;;;;;;;;;;5095352;28;20127;-74
2023/10/19 15:50:21;;;;;;;24.10;9.98;;;;;;;;;;5096242;28;20078;-73
2023/10/19 15:53:07;;;;;;;29.45;11.38;;;;;;;;;;5096239;28;20101;-72
2023/10/19 15:55:53;;;;;;;22.75;11.15;;;;;;;;;;5096407;28;20024;-73
2023/10/19 15:58:38;;;;;;;23.45;12.40;;;;;;;;;;5096773;28;20091;-74
2023/10/19 16:01:25;;;;;;;24.35;10.65;;;;;;;;;;5097354;28;20330;-74
2023/10/19 16:04:10;;;;;;;21.90;10.07;;;;;;;;;;5096875;28;20356;-73
2023/10/19 16:06:56;;;;;;;22.58;10.73;;;;;;;;;;5097157;28;20368;-73
2023/10/19 16:09:42;;;;;;;25.15;11.30;;;;;;;;;;5096001;28;20016;-70
2023/10/19 16:12:27;;;;;;;36.92;14.43;;;;;;;;;;5097520;28;20024;-72
2023/10/19 16:15:13;;;;;;;32.97;14.18;;;;;;;;;;5095945;28;20056;-75
2023/10/19 16:17:59;;;;;;;35.53;14.02;;;;;;;;;;5096129;28;20490;-75
2023/10/19 16:20:45;;;;;;;32.83;13.95;;;;;;;;;;5096248;28;20125;-71
2023/10/19 16:23:30;;;;;;;44.83;15.25;;;;;;;;;;5097160;28;20031;-68
2023/10/19 16:26:16;;;;;;;49.25;16.13;;;;;;;;;;5095589;28;20063;-70
2023/10/19 16:29:05;;;;;;;47.38;15.45;;;;;;;;;;5096047;28;20387;-69
2023/10/19 16:31:50;;;;;;;49.72;16.40;;;;;;;;;;5096319;28;20028;-70
2023/10/19 16:34:36;;;;;;;53.35;17.75;;;;;;;;;;5096134;28;20334;-71
2023/10/19 16:37:23;;;;;;;37.13;15.32;;;;;;;;;;5097768;27;20066;-70
2023/10/19 16:40:08;;;;;;;48.10;16.42;;;;;;;;;;5096937;28;20024;-69
2023/10/19 16:42:54;;;;;;;46.50;14.98;;;;;;;;;;5095715;28;20028;-70
2023/10/19 16:45:42;;;;;;;48.88;16.80;;;;;;;;;;5096253;28;20478;-72
2023/10/19 16:48:28;;;;;;;45.85;17.35;;;;;;;;;;5095579;28;20456;-69